createdAt,value
2018-11-11T00:00:34.308Z,6.03
2018-11-11T00:03:03.058Z,6.04
2018-11-11T00:05:31.797Z,6.06
2018-11-11T00:08:00.422Z,6.05
2018-11-11T00:10:29.063Z,5.99
2018-11-11T00:12:57.722Z,6.01
2018-11-11T00:15:26.432Z,5.94
2018-11-11T00:17:55.086Z,5.93
2018-11-11T00:20:23.865Z,5.89
2018-11-11T00:22:52.473Z,5.86
2018-11-11T00:25:21.102Z,5.86
2018-11-11T00:27:49.724Z,5.88
2018-11-11T00:30:19.456Z,5.91
2018-11-11T00:32:48.130Z,5.78
2018-11-11T00:35:16.809Z,5.71
2018-11-11T00:37:45.431Z,5.72
2018-11-11T00:40:15.544Z,5.62
2018-11-11T00:42:44.537Z,5.46
2018-11-11T00:45:13.949Z,5.49
2018-11-11T00:47:42.747Z,5.49
2018-11-11T00:50:12.078Z,5.50
2018-11-11T00:52:40.793Z,5.43
2018-11-11T00:55:12.632Z,5.36
2018-11-11T00:57:41.673Z,5.38
2018-11-11T01:00:13.001Z,5.29
2018-11-11T01:02:42.265Z,5.20
2018-11-11T01:05:11.864Z,5.09
2018-11-11T01:07:41.466Z,4.98
2018-11-11T01:10:12.072Z,4.88
2018-11-11T01:12:41.768Z,4.67
2018-11-11T01:15:12.141Z,4.55
2018-11-11T01:17:40.827Z,4.54
2018-11-11T01:20:11.645Z,4.48
2018-11-11T01:22:40.301Z,3.43
2018-11-11T01:25:11.140Z,4.54
2018-11-11T01:27:39.793Z,4.51
2018-11-11T01:30:08.969Z,4.58
2018-11-11T01:32:37.829Z,4.56
2018-11-11T01:35:08.473Z,4.40
2018-11-11T01:37:37.134Z,4.41
2018-11-11T01:40:06.681Z,4.49
2018-11-11T01:42:35.317Z,4.22
2018-11-11T01:45:04.018Z,4.24
2018-11-11T01:47:32.639Z,4.25
2018-11-11T01:50:01.318Z,4.26
2018-11-11T01:52:29.959Z,4.43
2018-11-11T01:54:58.602Z,4.30
2018-11-11T01:57:27.250Z,4.47
2018-11-11T01:59:55.948Z,4.33
2018-11-11T02:02:24.661Z,4.36
2018-11-11T02:04:53.303Z,4.31
2018-11-11T02:07:21.958Z,4.11
2018-11-11T02:09:50.761Z,3.97
2018-11-11T02:12:19.343Z,3.92
2018-11-11T02:14:48.273Z,4.15
2018-11-11T02:17:16.927Z,4.24
2018-11-11T02:19:45.653Z,4.23
2018-11-11T02:22:14.650Z,4.16
2018-11-11T02:24:43.261Z,4.32
2018-11-11T02:27:11.976Z,4.33
2018-11-11T02:29:40.582Z,4.26
2018-11-11T02:32:09.593Z,4.13
2018-11-11T02:34:38.237Z,4.09
2018-11-11T02:37:07.226Z,4.27
2018-11-11T02:39:35.854Z,4.49
2018-11-11T02:42:04.529Z,4.32
2018-11-11T02:44:33.205Z,4.30
2018-11-11T02:47:01.841Z,4.23
2018-11-11T02:49:30.798Z,4.28
2018-11-11T02:51:59.464Z,4.19
2018-11-11T02:54:28.136Z,4.65
2018-11-11T02:56:57.052Z,4.53
2018-11-11T02:59:25.726Z,4.42
2018-11-11T03:01:54.390Z,4.52
2018-11-11T03:04:23.118Z,4.30
2018-11-11T03:06:51.697Z,4.34
2018-11-11T03:09:20.360Z,4.45
2018-11-11T03:11:49.022Z,4.29
2018-11-11T03:14:17.642Z,3.84
2018-11-11T03:16:46.261Z,3.96
2018-11-11T03:19:14.921Z,3.92
2018-11-11T03:21:43.557Z,3.88
2018-11-11T03:24:12.182Z,4.27
2018-11-11T03:26:40.816Z,4.04
2018-11-11T03:29:09.571Z,4.30
2018-11-11T03:31:38.201Z,3.79
2018-11-11T03:34:06.829Z,3.66
2018-11-11T03:36:35.438Z,3.88
2018-11-11T03:39:04.382Z,3.84
2018-11-11T03:41:33.042Z,3.55
2018-11-11T03:44:01.698Z,3.68
2018-11-11T03:46:30.368Z,3.57
2018-11-11T03:48:59.030Z,3.52
2018-11-11T03:51:27.679Z,3.83
2018-11-11T03:53:56.356Z,3.55
2018-11-11T03:56:25.006Z,3.44
2018-11-11T03:58:53.657Z,3.58
2018-11-11T04:01:22.638Z,3.58
2018-11-11T04:03:51.297Z,3.50
2018-11-11T04:06:19.962Z,3.69
2018-11-11T04:08:48.603Z,3.26
2018-11-11T04:11:17.277Z,3.22
2018-11-11T04:13:46.152Z,3.23
2018-11-11T04:16:14.825Z,3.25
2018-11-11T04:18:43.504Z,3.53
2018-11-11T04:21:12.270Z,3.47
2018-11-11T04:23:40.964Z,3.19
2018-11-11T04:26:09.669Z,3.24
2018-11-11T04:28:38.315Z,3.15
2018-11-11T04:31:07.221Z,3.18
2018-11-11T04:33:35.869Z,3.35
2018-11-11T04:36:04.574Z,3.20
2018-11-11T04:38:33.213Z,3.16
2018-11-11T04:41:01.849Z,3.04
2018-11-11T04:43:30.479Z,3.11
2018-11-11T04:45:59.145Z,3.32
2018-11-11T04:48:27.814Z,3.20
2018-11-11T04:50:56.497Z,3.12
2018-11-11T04:53:25.128Z,3.15
2018-11-11T04:55:53.793Z,3.21
2018-11-11T04:58:22.477Z,3.36
2018-11-11T05:00:51.115Z,3.33
2018-11-11T05:03:19.806Z,3.03
2018-11-11T05:05:48.474Z,2.91
2018-11-11T05:08:17.153Z,2.88
2018-11-11T05:10:52.089Z,3.02
2018-11-11T05:13:20.708Z,3.40
2018-11-11T05:15:49.319Z,3.25
2018-11-11T05:18:17.983Z,3.10
2018-11-11T05:20:46.643Z,3.24
2018-11-11T05:23:15.334Z,3.12
2018-11-11T05:25:43.969Z,3.33
2018-11-11T05:28:12.598Z,3.39
2018-11-11T05:30:41.225Z,3.37
2018-11-11T05:33:09.923Z,4.03
2018-11-11T05:35:38.582Z,3.57
2018-11-11T05:38:07.436Z,4.79
2018-11-11T05:40:36.100Z,5.84
2018-11-11T05:43:04.795Z,4.10
2018-11-11T05:45:33.505Z,3.62
2018-11-11T05:48:02.134Z,3.48
2018-11-11T05:50:31.195Z,3.54
2018-11-11T05:52:59.901Z,3.99
2018-11-11T05:55:28.524Z,3.90
2018-11-11T05:57:57.214Z,3.85
2018-11-11T06:00:25.941Z,3.85
2018-11-11T06:02:54.582Z,3.74
2018-11-11T06:05:23.270Z,4.71
2018-11-11T06:07:51.988Z,5.26
2018-11-11T06:10:20.726Z,5.62
2018-11-11T06:12:49.424Z,5.77
2018-11-11T06:15:18.049Z,5.90
2018-11-11T06:17:46.759Z,6.10
2018-11-11T06:20:16.470Z,6.06
2018-11-11T06:22:45.179Z,6.00
2018-11-11T06:25:13.804Z,6.42
2018-11-11T06:27:42.452Z,6.73
2018-11-11T06:30:11.945Z,6.81
2018-11-11T06:32:40.632Z,6.88
2018-11-11T06:35:09.474Z,7.08
2018-11-11T06:37:38.237Z,7.48
2018-11-11T06:40:08.685Z,5.92
2018-11-11T06:42:37.662Z,7.81
2018-11-11T06:45:07.730Z,7.73
2018-11-11T06:47:36.368Z,7.91
2018-11-11T06:50:05.766Z,7.86
2018-11-11T06:52:34.415Z,8.15
2018-11-11T06:55:03.105Z,8.25
2018-11-11T06:57:31.986Z,8.14
2018-11-11T07:00:00.593Z,8.17
2018-11-11T07:02:35.054Z,7.78
2018-11-11T07:05:04.048Z,8.04
2018-11-11T07:07:32.746Z,8.07
2018-11-11T07:10:01.501Z,8.15
2018-11-11T07:12:30.207Z,8.06
2018-11-11T07:14:58.833Z,7.89
2018-11-11T07:17:27.502Z,8.29
2018-11-11T07:19:56.100Z,8.53
2018-11-11T07:22:24.789Z,8.87
2018-11-11T07:24:53.429Z,8.87
2018-11-11T07:27:22.146Z,9.14
2018-11-11T07:29:50.753Z,8.93
2018-11-11T07:32:19.447Z,9.30
2018-11-11T07:34:48.074Z,9.51
2018-11-11T07:37:16.834Z,9.87
2018-11-11T07:39:45.504Z,9.87
2018-11-11T07:42:14.500Z,9.95
2018-11-11T07:44:43.121Z,9.72
2018-11-11T07:47:11.767Z,9.70
2018-11-11T07:49:40.563Z,9.95
2018-11-11T07:52:09.243Z,9.90
2018-11-11T07:54:37.881Z,10.12
2018-11-11T07:57:06.604Z,10.68
2018-11-11T07:59:35.309Z,10.84
2018-11-11T08:02:04.023Z,10.85
2018-11-11T08:04:32.658Z,10.77
2018-11-11T08:07:01.313Z,10.70
2018-11-11T08:09:29.970Z,10.86
2018-11-11T08:12:00.149Z,10.98
2018-11-11T08:14:29.252Z,10.81
2018-11-11T08:16:58.190Z,10.72
2018-11-11T08:19:26.958Z,10.95
2018-11-11T08:21:55.603Z,11.20
2018-11-11T08:24:24.297Z,11.60
2018-11-11T08:26:53.230Z,11.89
2018-11-11T08:29:21.901Z,11.58
2018-11-11T08:31:50.528Z,11.48
2018-11-11T08:34:19.153Z,11.78
2018-11-11T08:36:48.054Z,12.30
2018-11-11T08:39:17.462Z,12.59
2018-11-11T08:41:46.601Z,12.53
2018-11-11T08:44:15.327Z,12.46
2018-11-11T08:46:45.224Z,12.81
2018-11-11T08:49:14.622Z,13.12
2018-11-11T08:51:43.282Z,13.14
2018-11-11T08:54:11.910Z,13.36
2018-11-11T08:56:40.581Z,13.48
2018-11-11T08:59:09.251Z,13.29
2018-11-11T09:01:37.976Z,13.54
2018-11-11T09:04:07.138Z,13.86
2018-11-11T09:06:35.799Z,14.16
2018-11-11T09:09:05.192Z,14.20
2018-11-11T09:11:33.992Z,14.33
2018-11-11T09:14:02.557Z,14.56
2018-11-11T09:16:31.239Z,14.15
2018-11-11T09:18:59.911Z,14.23
2018-11-11T09:21:29.098Z,14.14
2018-11-11T09:23:57.729Z,14.45
2018-11-11T09:26:26.381Z,14.63
2018-11-11T09:28:55.074Z,14.67
2018-11-11T09:31:23.902Z,14.65
2018-11-11T09:33:52.564Z,14.81
2018-11-11T09:36:21.265Z,14.92
2018-11-11T09:38:49.951Z,14.75
2018-11-11T09:41:18.604Z,14.95
2018-11-11T09:43:47.295Z,15.25
2018-11-11T09:46:15.985Z,15.22
2018-11-11T09:48:44.628Z,14.66
2018-11-11T09:51:13.328Z,15.03
2018-11-11T09:53:42.041Z,14.91
2018-11-11T09:56:10.705Z,15.16
2018-11-11T09:58:39.409Z,15.76
2018-11-11T10:01:08.197Z,15.44
2018-11-11T10:03:42.746Z,15.24
2018-11-11T10:06:18.302Z,15.44
2018-11-11T10:08:52.169Z,15.51
2018-11-11T10:11:59.118Z,15.29
2018-11-11T10:14:39.401Z,15.12
2018-11-11T10:18:11.766Z,15.09
2018-11-11T10:21:01.646Z,15.43
2018-11-11T10:23:35.598Z,15.55
2018-11-11T10:26:10.003Z,16.14
2018-11-11T10:28:46.417Z,16.27
2018-11-11T10:32:19.028Z,16.42
2018-11-11T10:35:23.122Z,16.49
2018-11-11T10:37:58.280Z,16.76
2018-11-11T10:41:30.746Z,16.61
2018-11-11T10:44:03.773Z,16.54
2018-11-11T10:46:42.123Z,16.74
2018-11-11T10:49:12.555Z,16.67
2018-11-11T10:51:41.215Z,16.81
2018-11-11T10:54:09.951Z,16.98
2018-11-11T10:56:38.565Z,17.27
2018-11-11T10:59:07.242Z,17.35
2018-11-11T11:01:41.090Z,16.82
2018-11-11T11:04:10.133Z,16.46
2018-11-11T11:06:43.898Z,16.41
2018-11-11T11:09:13.807Z,16.89
2018-11-11T11:11:43.605Z,17.21
2018-11-11T11:14:12.782Z,17.31
2018-11-11T11:16:41.434Z,16.64
2018-11-11T11:19:10.180Z,16.93
2018-11-11T11:21:39.115Z,17.35
2018-11-11T11:24:07.766Z,17.43
2018-11-11T11:26:36.390Z,17.89
2018-11-11T11:29:05.136Z,17.79
2018-11-11T11:31:33.877Z,17.48
2018-11-11T11:34:02.786Z,17.63
2018-11-11T11:36:31.469Z,17.96
2018-11-11T11:39:00.168Z,17.86
2018-11-11T11:41:28.936Z,17.46
2018-11-11T11:43:57.640Z,17.72
2018-11-11T11:46:26.266Z,17.67
2018-11-11T11:48:54.992Z,17.79
2018-11-11T11:51:23.638Z,18.10
2018-11-11T11:53:52.265Z,17.09
2018-11-11T11:56:20.954Z,17.29
2018-11-11T11:58:50.461Z,17.32
2018-11-11T12:01:19.115Z,17.35
2018-11-11T12:03:47.715Z,17.74
2018-11-11T12:06:16.378Z,18.11
2018-11-11T12:08:45.145Z,17.92
2018-11-11T12:11:13.771Z,17.99
2018-11-11T12:13:42.447Z,17.92
2018-11-11T12:16:11.078Z,17.79
2018-11-11T12:18:40.413Z,17.84
2018-11-11T12:21:09.073Z,17.94
2018-11-11T12:23:37.709Z,17.67
2018-11-11T12:26:06.378Z,17.57
2018-11-11T12:28:35.143Z,17.71
2018-11-11T12:31:03.814Z,17.95
2018-11-11T12:33:32.463Z,17.54
2018-11-11T12:36:01.113Z,17.95
2018-11-11T12:38:29.750Z,18.05
2018-11-11T12:40:58.504Z,17.90
2018-11-11T12:43:27.149Z,17.72
2018-11-11T12:45:55.815Z,17.87
2018-11-11T12:48:24.496Z,17.91
2018-11-11T12:50:53.141Z,17.98
2018-11-11T12:53:21.814Z,18.26
2018-11-11T12:55:50.485Z,17.48
2018-11-11T12:58:19.131Z,17.55
2018-11-11T13:00:47.814Z,17.64
2018-11-11T13:03:16.509Z,17.28
2018-11-11T13:05:45.136Z,17.47
2018-11-11T13:08:13.830Z,17.76
2018-11-11T13:10:42.486Z,17.83
2018-11-11T13:13:11.222Z,18.09
2018-11-11T13:15:39.899Z,18.14
2018-11-11T13:18:08.560Z,18.37
2018-11-11T13:20:37.217Z,18.28
2018-11-11T13:23:06.180Z,18.15
2018-11-11T13:25:34.902Z,17.79
2018-11-11T13:28:03.517Z,17.65
2018-11-11T13:30:32.167Z,17.73
2018-11-11T13:33:00.852Z,17.82
2018-11-11T13:35:29.502Z,17.55
2018-11-11T13:37:58.254Z,17.08
2018-11-11T13:40:26.889Z,17.10
2018-11-11T13:42:56.286Z,16.85
2018-11-11T13:45:24.953Z,16.87
2018-11-11T13:47:53.613Z,16.88
2018-11-11T13:50:23.699Z,16.78
2018-11-11T13:52:52.916Z,16.66
2018-11-11T13:55:22.409Z,16.59
2018-11-11T13:57:51.430Z,16.54
2018-11-11T14:00:28.966Z,16.25
2018-11-11T14:02:57.894Z,15.87
2018-11-11T14:05:26.829Z,15.92
2018-11-11T14:07:55.514Z,15.96
2018-11-11T14:10:24.229Z,15.73
2018-11-11T14:12:52.887Z,15.68
2018-11-11T14:15:23.612Z,15.67
2018-11-11T14:17:52.823Z,15.67
2018-11-11T14:20:22.854Z,15.69
2018-11-11T14:22:52.333Z,15.61
2018-11-11T14:25:23.744Z,15.62
2018-11-11T14:27:52.345Z,15.64
2018-11-11T14:30:22.463Z,15.50
2018-11-11T14:32:52.280Z,15.46
2018-11-11T14:35:20.979Z,15.42
2018-11-11T14:37:49.866Z,15.45
2018-11-11T14:40:25.634Z,15.35
2018-11-11T14:42:54.314Z,15.28
2018-11-11T14:45:23.489Z,15.25
2018-11-11T14:47:53.414Z,15.15
2018-11-11T14:50:22.738Z,15.05
2018-11-11T14:52:51.455Z,15.03
2018-11-11T14:55:22.582Z,15.01
2018-11-11T14:57:51.216Z,14.98
2018-11-11T15:00:23.967Z,14.94
2018-11-11T15:03:06.718Z,14.91
2018-11-11T15:05:35.514Z,14.90
2018-11-11T15:08:04.301Z,14.80
2018-11-11T15:10:32.945Z,14.68
2018-11-11T15:13:01.656Z,14.63
2018-11-11T15:15:30.275Z,14.60
2018-11-11T15:17:59.958Z,14.49
2018-11-11T15:20:28.657Z,14.35
2018-11-11T15:22:57.317Z,14.25
2018-11-11T15:25:27.185Z,14.13
2018-11-11T15:27:55.831Z,13.86
2018-11-11T15:30:25.955Z,13.62
2018-11-11T15:32:55.404Z,13.62
2018-11-11T15:35:24.113Z,13.58
2018-11-11T15:37:52.782Z,13.49
2018-11-11T15:40:22.855Z,13.33
2018-11-11T15:42:51.638Z,13.29
2018-11-11T15:45:22.477Z,13.22
2018-11-11T15:47:51.177Z,13.21
2018-11-11T15:50:21.347Z,13.15
2018-11-11T15:52:51.398Z,12.88
2018-11-11T15:55:21.054Z,13.03
2018-11-11T15:57:49.751Z,12.95
2018-11-11T16:00:23.834Z,12.89
2018-11-11T16:02:52.528Z,12.87
2018-11-11T16:05:21.382Z,12.80
2018-11-11T16:07:50.902Z,12.78
2018-11-11T16:10:25.754Z,12.68
2018-11-11T16:12:54.416Z,12.58
2018-11-11T16:15:25.336Z,12.51
2018-11-11T16:17:55.779Z,12.47
2018-11-11T16:20:25.765Z,12.45
2018-11-11T16:22:55.731Z,12.40
2018-11-11T16:25:24.428Z,12.39
2018-11-11T16:27:53.135Z,12.35
2018-11-11T16:30:24.127Z,12.22
2018-11-11T16:32:53.294Z,12.12
2018-11-11T16:35:23.238Z,11.93
2018-11-11T16:37:51.982Z,11.80
2018-11-11T16:40:23.892Z,11.69
2018-11-11T16:42:52.825Z,11.52
2018-11-11T16:45:23.201Z,11.50
2018-11-11T16:47:51.963Z,11.50
2018-11-11T16:50:23.910Z,11.46
2018-11-11T16:52:53.289Z,11.30
2018-11-11T16:55:23.468Z,11.28
2018-11-11T16:57:52.066Z,11.35
2018-11-11T17:00:23.104Z,11.25
2018-11-11T17:02:52.201Z,11.14
2018-11-11T17:05:22.229Z,11.04
2018-11-11T17:07:51.222Z,10.78
2018-11-11T17:10:23.941Z,10.62
2018-11-11T17:12:53.589Z,10.60
2018-11-11T17:15:23.834Z,10.51
2018-11-11T17:17:52.509Z,10.32
2018-11-11T17:20:22.274Z,10.13
2018-11-11T17:22:51.722Z,10.10
2018-11-11T17:25:21.350Z,10.24
2018-11-11T17:27:50.027Z,10.22
2018-11-11T17:30:21.116Z,10.19
2018-11-11T17:32:50.565Z,10.15
2018-11-11T17:35:19.266Z,10.14
2018-11-11T17:37:48.415Z,9.98
2018-11-11T17:40:19.316Z,9.87
2018-11-11T17:42:49.244Z,9.83
2018-11-11T17:45:18.219Z,9.83
2018-11-11T17:47:47.440Z,9.53
2018-11-11T17:50:19.279Z,9.41
2018-11-11T17:52:47.933Z,9.31
2018-11-11T17:55:17.930Z,9.25
2018-11-11T17:57:46.711Z,9.16
2018-11-11T18:00:18.725Z,9.18
2018-11-11T18:02:47.451Z,9.16
2018-11-11T18:05:17.497Z,9.13
2018-11-11T18:07:46.201Z,9.18
2018-11-11T18:10:16.136Z,9.09
2018-11-11T18:12:44.864Z,9.05
2018-11-11T18:15:15.765Z,9.11
2018-11-11T18:17:44.405Z,9.10
2018-11-11T18:20:24.696Z,9.14
2018-11-11T18:22:54.403Z,9.14
2018-11-11T18:25:23.378Z,9.17
2018-11-11T18:27:52.170Z,9.10
2018-11-11T18:30:24.486Z,9.00
2018-11-11T18:32:53.169Z,8.96
2018-11-11T18:35:22.133Z,9.02
2018-11-11T18:37:50.757Z,9.13
2018-11-11T18:40:20.809Z,9.15
2018-11-11T18:42:49.528Z,9.10
2018-11-11T18:45:20.630Z,9.06
2018-11-11T18:47:50.073Z,9.09
2018-11-11T18:50:22.441Z,9.09
2018-11-11T18:52:51.137Z,7.80
2018-11-11T18:55:19.822Z,9.11
2018-11-11T18:57:48.598Z,9.12
2018-11-11T19:00:25.216Z,9.12
2018-11-11T19:02:54.732Z,9.11
2018-11-11T19:05:24.067Z,9.10
2018-11-11T19:07:52.993Z,9.06
2018-11-11T19:10:23.860Z,9.09
2018-11-11T19:12:53.835Z,9.14
2018-11-11T19:15:22.812Z,9.15
2018-11-11T19:17:52.224Z,9.10
2018-11-11T19:20:22.228Z,9.00
2018-11-11T19:22:50.886Z,8.92
2018-11-11T19:25:20.953Z,8.88
2018-11-11T19:27:50.857Z,8.97
2018-11-11T19:30:20.655Z,9.03
2018-11-11T19:32:49.981Z,9.11
2018-11-11T19:35:18.874Z,9.13
2018-11-11T19:37:48.784Z,9.12
2018-11-11T19:40:19.004Z,9.12
2018-11-11T19:42:48.079Z,8.94
2018-11-11T19:45:19.009Z,8.76
2018-11-11T19:47:48.565Z,8.76
2018-11-11T19:50:18.628Z,8.88
2018-11-11T19:52:48.566Z,9.01
2018-11-11T19:55:18.462Z,8.90
2018-11-11T19:57:47.116Z,8.83
2018-11-11T20:00:18.553Z,8.68
2018-11-11T20:02:48.197Z,8.52
2018-11-11T20:05:17.483Z,8.48
2018-11-11T20:07:48.460Z,8.39
2018-11-11T20:10:18.189Z,8.32
2018-11-11T20:12:46.858Z,8.28
2018-11-11T20:15:18.687Z,8.27
2018-11-11T20:17:47.834Z,8.23
2018-11-11T20:20:20.090Z,8.20
2018-11-11T20:22:49.103Z,8.22
2018-11-11T20:25:18.627Z,8.23
2018-11-11T20:27:47.662Z,8.20
2018-11-11T20:30:19.887Z,8.14
2018-11-11T20:32:48.634Z,8.11
2018-11-11T20:35:19.223Z,8.06
2018-11-11T20:37:47.837Z,8.04
2018-11-11T20:40:17.852Z,8.06
2018-11-11T20:42:47.005Z,8.05
2018-11-11T20:45:16.794Z,7.93
2018-11-11T20:47:46.004Z,7.93
2018-11-11T20:50:16.608Z,7.91
2018-11-11T20:52:46.325Z,7.91
2018-11-11T20:55:16.430Z,6.52
2018-11-11T20:57:45.067Z,7.80
2018-11-11T21:00:17.186Z,7.81
2018-11-11T21:02:45.843Z,7.81
2018-11-11T21:05:15.793Z,7.79
2018-11-11T21:07:44.520Z,7.78
2018-11-11T21:10:15.605Z,7.72
2018-11-11T21:12:44.317Z,7.69
2018-11-11T21:15:15.421Z,7.61
2018-11-11T21:17:44.417Z,7.58
2018-11-11T21:20:14.369Z,7.58
2018-11-11T21:22:43.321Z,7.55
2018-11-11T21:25:12.614Z,7.43
2018-11-11T21:27:42.379Z,7.39
2018-11-11T21:30:13.734Z,7.37
2018-11-11T21:32:42.454Z,7.38
2018-11-11T21:35:11.631Z,7.29
2018-11-11T21:37:40.404Z,7.17
2018-11-11T21:40:12.597Z,6.92
2018-11-11T21:42:41.806Z,6.69
2018-11-11T21:45:12.128Z,6.57
2018-11-11T21:47:41.107Z,6.59
2018-11-11T21:50:11.914Z,6.67
2018-11-11T21:52:40.917Z,6.69
2018-11-11T21:55:09.905Z,6.60
2018-11-11T21:57:39.077Z,6.66
2018-11-11T22:00:11.719Z,6.67
2018-11-11T22:02:40.476Z,6.63
2018-11-11T22:05:10.579Z,6.52
2018-11-11T22:07:39.680Z,6.52
2018-11-11T22:10:10.418Z,6.63
2018-11-11T22:12:39.108Z,6.69
2018-11-11T22:15:09.058Z,6.66
2018-11-11T22:17:37.770Z,6.66
2018-11-11T22:20:07.239Z,6.72
2018-11-11T22:22:35.946Z,6.73
2018-11-11T22:25:05.082Z,6.64
2018-11-11T22:27:33.812Z,6.53
2018-11-11T22:30:02.458Z,6.29
2018-11-11T22:32:31.105Z,5.64
2018-11-11T22:34:59.718Z,6.29
2018-11-11T22:37:28.383Z,6.37
2018-11-11T22:39:57.039Z,6.35
2018-11-11T22:42:25.774Z,6.19
2018-11-11T22:44:54.425Z,5.96
2018-11-11T22:47:23.077Z,5.85
2018-11-11T22:49:51.998Z,5.83
2018-11-11T22:52:20.749Z,5.82
2018-11-11T22:54:49.421Z,5.86
2018-11-11T22:57:18.094Z,5.75
2018-11-11T22:59:46.758Z,5.68
2018-11-11T23:02:15.449Z,5.58
2018-11-11T23:04:44.146Z,5.52
2018-11-11T23:07:12.810Z,5.56
2018-11-11T23:09:41.458Z,5.63
2018-11-11T23:12:10.160Z,5.60
2018-11-11T23:14:38.897Z,5.71
2018-11-11T23:17:07.528Z,5.67
2018-11-11T23:19:36.205Z,5.73
2018-11-11T23:22:05.230Z,5.77
2018-11-11T23:24:33.853Z,5.75
2018-11-11T23:27:02.558Z,5.68
2018-11-11T23:29:31.250Z,2.77
2018-11-11T23:31:59.916Z,5.75
2018-11-11T23:34:28.638Z,5.70
2018-11-11T23:36:57.427Z,5.49
2018-11-11T23:39:26.132Z,5.38
2018-11-11T23:41:54.783Z,5.28
2018-11-11T23:44:23.450Z,5.34
2018-11-11T23:46:52.109Z,5.31
2018-11-11T23:49:20.800Z,5.47
2018-11-11T23:51:49.483Z,5.60
2018-11-11T23:54:18.130Z,5.66
2018-11-11T23:56:47.173Z,5.68
2018-11-11T23:59:15.857Z,5.64
